Airfield :
LOGIN :

Register | Disclaimer

   EN    FR    IT 

 










Legend :    VFR   Marginal VFR   IFR   Intensive IFR   Very Intensive IFR
Visi :
Ceiling :
>= 8 km
>= 3000ft
5 to 8 km
1000 to 3000 ft
1500m to 5 km
500 to 1000 ft
800 to 1500m
200 to 500 ft
< 800m
< 200 ft
Symbols :   Thunderstorms  Fog  Heavy snow  Heavy precipitations  Wind > 20 kt
SIGMETs :     Misc.  Thunderstorms  Icing  Turbulence  Mountain Waves  Volcanic Ashes






- Airport Elevation : 2595 ft
- IATA code : SLM


LESA - Salamanca Matacan

CURRENT METAR :
  • 081000Z 15007KT 9999 -RA FEW040 08/08 Q1001

EXPIRED METARs :
  • 080930Z 11004KT 9999 BKN045 08/07 Q1001 RERA
  • 080900Z 22005KT 4000 RA BKN045 07/07 Q1002
  • 080830Z 11003KT 090V150 6000 RA FEW012 08/07 Q1002
  • 080800Z VRB02KT 8000 -RA SCT012 BKN045 08/07 Q1002 RERA
  • 080730Z VRB01KT 5000 RA BKN015 BKN035 08/07 Q1002

TAF TAF LESA
Valid from the 08 at 09:00 until the 09 at 09:00 UTC


080800Z 0809/0909 VRB05KT 9999 FEW010 BKN040 TX11/0815Z TN07/0906Z
PROB40
TEMPO 0809/0909 3000 RA BKN010
BECMG 0810/0812 21012KT



MET'MAP, your aeronautical weather chart ! - Copyright ORBIFLY December 2007 - Disclaimer

ORBIFLY MET'MAP TEAM :

Programming & Development : Alexandra Zaïnal
Original concept : Baudouin d'Aumeries
Technical & hardware support : Manuel Goepfert
Assistance : Marc-Olivier Méhu




SOURCES & CREDITS :

   NOAA